Time;durP1;ratioP1;P1;durP2;ratioP2;P2;SDS_P1;SDS_P2;PMS_P1;PMS_P2;Temp;Humidity;BMP_temperature;BMP_pressure;BME280_temperature;BME280_humidity;BME280_pressure;Samples;Min_cycle;Max_cycle;Signal;HPM_P1;HPM_P2
2022/01/05 00:02:23;;;;;;;21.60;12.18;;;;;;;1.25;76.58;94259.06;5113154;27;20028;-72
2022/01/05 00:04:48;;;;;;;22.63;13.05;;;;;;;1.20;77.57;94255.97;5112040;27;20110;-73
2022/01/05 00:07:14;;;;;;;20.98;12.57;;;;;;;1.21;77.36;94267.00;5095949;28;20035;-72
2022/01/05 00:09:39;;;;;;;19.33;12.30;;;;;;;1.16;76.67;94248.53;5130694;28;20403;-72
2022/01/05 00:12:05;;;;;;;21.50;12.93;;;;;;;1.11;76.70;94259.00;5113548;28;20410;-72
2022/01/05 00:14:30;;;;;;;21.90;12.63;;;;;;;1.03;77.20;94254.31;5132012;27;20461;-73
2022/01/05 00:16:56;;;;;;;24.67;13.48;;;;;;;1.08;77.44;94254.06;5111528;28;20031;-72
2022/01/05 00:19:21;;;;;;;24.23;13.85;;;;;;;0.91;77.10;94233.69;5111449;28;20023;-72
2022/01/05 00:21:48;;;;;;;23.77;13.57;;;;;;;0.98;77.29;94245.25;5110458;28;20053;-72
2022/01/05 00:24:13;;;;;;;23.83;13.48;;;;;;;0.92;77.39;94255.78;5113418;28;20053;-72
2022/01/05 00:26:39;;;;;;;22.27;13.63;;;;;;;0.97;77.89;94253.81;5130416;28;20114;-73
2022/01/05 00:29:05;;;;;;;23.20;13.10;;;;;;;0.97;77.12;94264.88;5113372;28;20023;-73
2022/01/05 00:31:30;;;;;;;19.30;13.35;;;;;;;1.06;78.28;94250.78;5130467;28;20105;-72
2022/01/05 00:33:55;;;;;;;21.30;13.60;;;;;;;1.24;78.23;94261.72;5113255;28;20038;-72
2022/01/05 00:36:21;;;;;;;21.67;12.27;;;;;;;1.26;78.08;94260.72;5113154;28;20032;-72
2022/01/05 00:38:46;;;;;;;23.75;13.32;;;;;;;1.36;78.22;94260.22;5094233;28;20023;-72
2022/01/05 00:41:12;;;;;;;21.05;12.35;;;;;;;1.51;76.80;94254.25;5110997;28;20036;-72
2022/01/05 00:43:37;;;;;;;20.65;13.02;;;;;;;1.49;77.30;94238.97;5131739;27;20103;-72
2022/01/05 00:46:03;;;;;;;17.23;12.48;;;;;;;1.02;76.66;94251.84;5134082;27;20028;-72
2022/01/05 00:48:32;;;;;;;25.73;14.55;;;;;;;0.97;78.08;94257.19;5135498;27;20040;-72
2022/01/05 00:51:00;;;;;;;22.75;13.93;;;;;;;1.11;77.72;94248.78;5117680;27;20031;-73
2022/01/05 00:53:26;;;;;;;25.27;14.73;;;;;;;0.57;78.54;94261.88;5115964;27;20043;-72
2022/01/05 00:55:51;;;;;;;24.15;14.05;;;;;;;0.82;78.56;94265.72;5113406;28;20433;-72
2022/01/05 00:58:19;;;;;;;20.42;13.55;;;;;;;0.79;78.16;94251.34;5113317;28;20043;-72
2022/01/05 01:00:45;;;;;;;24.15;13.80;;;;;;;0.85;79.02;94257.88;5121131;27;20444;-72
2022/01/05 01:03:10;;;;;;;22.38;13.38;;;;;;;0.97;79.07;94253.81;5116648;27;20027;-72
2022/01/05 01:05:36;;;;;;;22.30;14.63;;;;;;;1.14;78.57;94247.78;5133918;27;20038;-72
2022/01/05 01:08:01;;;;;;;25.17;13.52;;;;;;;1.36;78.03;94249.97;5133870;27;20031;-72
2022/01/05 01:10:27;;;;;;;22.05;13.63;;;;;;;1.43;77.30;94247.00;5131710;27;20031;-72
2022/01/05 01:12:52;;;;;;;21.52;12.73;;;;;;;1.34;76.79;94245.78;5133807;27;20024;-72
2022/01/05 01:15:18;;;;;;;25.17;15.13;;;;;;;1.48;77.34;94223.72;5133630;27;20027;-73
2022/01/05 01:17:43;;;;;;;23.67;12.98;;;;;;;1.45;77.34;94223.84;5105310;28;20031;-73
2022/01/05 01:20:09;;;;;;;21.55;13.93;;;;;;;1.47;75.97;94242.53;5079110;28;20088;-72
2022/01/05 01:22:35;;;;;;;25.42;14.40;;;;;;;1.33;76.96;94239.00;5112986;28;20118;-73
2022/01/05 01:25:00;;;;;;;25.25;14.13;;;;;;;1.36;77.13;94249.97;5113933;27;20023;-72
2022/01/05 01:27:26;;;;;;;24.73;14.82;;;;;;;1.37;76.72;94251.66;5112880;28;20039;-73
2022/01/05 01:29:51;;;;;;;24.13;14.85;;;;;;;1.32;77.08;94245.03;5112789;28;20051;-72
2022/01/05 01:32:17;;;;;;;24.10;14.25;;;;;;;1.51;77.50;94238.88;5113910;27;20039;-73
2022/01/05 01:34:42;;;;;;;20.88;13.75;;;;;;;1.59;77.46;94246.13;5078767;28;20043;-73
2022/01/05 01:37:08;;;;;;;25.05;14.07;;;;;;;1.65;77.24;94228.69;5112667;28;20501;-72
2022/01/05 01:39:33;;;;;;;23.27;12.48;;;;;;;1.70;76.77;94223.28;5095819;28;20035;-73
2022/01/05 01:41:58;;;;;;;19.77;13.35;;;;;;;1.29;77.88;94219.63;5126553;27;20027;-72
2022/01/05 01:44:24;;;;;;;22.13;13.77;;;;;;;1.44;77.26;94219.66;5133326;27;20042;-73
2022/01/05 01:46:49;;;;;;;22.23;13.18;;;;;;;1.21;76.99;94226.91;5116004;27;20031;-72
2022/01/05 01:49:15;;;;;;;19.77;13.23;;;;;;;1.19;77.03;94212.53;5132135;27;20056;-72
2022/01/05 01:51:40;;;;;;;25.95;14.02;;;;;;;1.18;77.58;94231.38;5112634;28;20032;-73
2022/01/05 01:54:06;;;;;;;20.58;14.07;;;;;;;1.13;77.97;94223.13;5113736;28;20405;-73
2022/01/05 01:56:32;;;;;;;18.23;12.55;;;;;;;1.34;78.06;94224.47;5078430;28;20043;-73
2022/01/05 01:58:57;;;;;;;20.88;13.48;;;;;;;1.46;77.25;94228.09;5095478;28;20024;-73
2022/01/05 02:01:23;;;;;;;22.95;13.38;;;;;;;1.46;77.41;94228.91;5112303;28;20042;-72
2022/01/05 02:03:48;;;;;;;21.67;12.85;;;;;;;1.58;77.63;94218.88;5111902;28;20023;-73
2022/01/05 02:06:14;;;;;;;19.25;12.68;;;;;;;1.62;77.16;94213.50;5112207;28;20039;-73
2022/01/05 02:08:39;;;;;;;20.60;12.32;;;;;;;1.83;76.42;94228.53;5095079;28;20020;-72
2022/01/05 02:11:05;;;;;;;22.38;14.00;;;;;;;1.91;76.80;94216.09;5131961;27;20064;-72
2022/01/05 02:13:31;;;;;;;20.77;12.73;;;;;;;1.96;76.15;94229.47;5115403;27;20115;-73
2022/01/05 02:15:56;;;;;;;20.35;12.63;;;;;;;1.98;76.21;94222.53;5098312;27;20043;-72
2022/01/05 02:21:01;;;;;;;18.42;12.60;;;;;;;2.18;75.27;94213.66;5132780;27;20496;-73
2022/01/05 02:23:26;;;;;;;27.48;16.90;;;;;;;1.99;75.26;94208.78;5115955;27;20062;-72
2022/01/05 02:25:51;;;;;;;23.10;13.95;;;;;;;2.03;75.16;94205.13;5107136;28;20035;-73
2022/01/05 02:28:17;;;;;;;23.08;13.70;;;;;;;1.99;76.14;94189.13;5112786;28;20039;-72
2022/01/05 02:30:42;;;;;;;20.33;12.18;;;;;;;2.07;75.63;94186.09;5132045;27;20050;-73
2022/01/05 02:33:08;;;;;;;19.60;12.00;;;;;;;1.91;75.30;94185.38;5115086;27;20060;-72
2022/01/05 02:35:33;;;;;;;18.60;11.95;;;;;;;1.88;76.59;94211.16;5132105;27;20520;-73
2022/01/05 02:37:59;;;;;;;21.13;11.43;;;;;;;1.70;76.09;94195.97;5130424;27;20473;-73
2022/01/05 02:40:24;;;;;;;23.08;12.77;;;;;;;1.77;76.37;94181.06;5114767;27;20425;-72
2022/01/05 02:42:52;;;;;;;25.00;12.07;;;;;;;1.88;76.23;94195.78;5097759;27;20034;-73
2022/01/05 02:45:17;;;;;;;21.58;12.85;;;;;;;1.87;75.96;94186.47;5098131;27;20059;-72
2022/01/05 02:47:43;;;;;;;21.73;12.38;;;;;;;2.05;76.04;94193.06;5131492;27;20418;-72
2022/01/05 02:50:09;;;;;;;21.40;11.73;;;;;;;2.15;75.86;94188.22;5114276;27;20491;-72
2022/01/05 02:52:35;;;;;;;16.50;10.80;;;;;;;2.13;74.68;94175.47;5094324;28;20020;-72
2022/01/05 02:55:02;;;;;;;16.17;10.57;;;;;;;2.20;75.24;94184.47;5094425;28;20034;-73
2022/01/05 02:57:27;;;;;;;16.60;10.68;;;;;;;2.09;74.81;94178.31;5094244;28;20036;-73
2022/01/05 02:59:53;;;;;;;17.77;10.85;;;;;;;2.19;74.54;94171.72;5093822;28;20045;-72
2022/01/05 03:02:19;;;;;;;16.35;10.85;;;;;;;2.22;74.88;94164.66;5111070;28;20028;-73
2022/01/05 03:04:44;;;;;;;18.98;11.48;;;;;;;2.26;74.76;94169.59;5110591;28;20448;-72
2022/01/05 03:07:09;;;;;;;19.35;11.63;;;;;;;2.36;74.52;94168.97;5093896;28;20031;-72
2022/01/05 03:09:35;;;;;;;19.20;12.40;;;;;;;2.29;74.23;94169.44;5126865;27;20023;-72
2022/01/05 03:12:00;;;;;;;28.17;14.10;;;;;;;2.08;73.53;94166.44;5131480;27;20035;-72
2022/01/05 03:14:26;;;;;;;20.42;11.82;;;;;;;1.66;75.30;94179.09;5129483;27;20023;-72
2022/01/05 03:16:51;;;;;;;19.90;12.15;;;;;;;1.55;75.79;94158.44;5113605;27;20035;-72
2022/01/05 03:19:17;;;;;;;16.15;11.88;;;;;;;1.54;75.85;94172.97;5131371;27;20030;-72
2022/01/05 03:21:42;;;;;;;21.48;11.75;;;;;;;1.42;75.55;94183.06;5114117;27;20031;-72
2022/01/05 03:24:07;;;;;;;19.20;11.55;;;;;;;1.40;76.61;94170.38;5131264;27;20034;-72
2022/01/05 03:26:33;;;;;;;20.92;11.98;;;;;;;1.39;76.36;94175.56;5099106;28;20433;-72
2022/01/05 03:28:58;;;;;;;20.23;12.75;;;;;;;1.15;76.89;94180.38;5093648;28;20077;-72
2022/01/05 03:31:24;;;;;;;21.05;12.00;;;;;;;1.22;76.64;94166.31;5076719;28;20051;-72
2022/01/05 03:33:49;;;;;;;31.65;17.13;;;;;;;1.15;76.19;94183.75;5111900;28;20104;-72
2022/01/05 03:36:15;;;;;;;24.70;13.82;;;;;;;1.16;76.70;94177.72;5110444;28;20115;-72
2022/01/05 03:38:40;;;;;;;19.50;12.52;;;;;;;1.13;75.78;94167.66;5093259;28;20027;-73
2022/01/05 03:41:06;;;;;;;19.08;11.85;;;;;;;1.02;76.22;94164.88;5111629;28;20502;-72
2022/01/05 03:43:31;;;;;;;13.60;9.98;;;;;;;1.08;76.52;94183.25;5093392;28;20493;-72
2022/01/05 03:45:56;;;;;;;17.75;11.13;;;;;;;0.92;75.88;94169.69;5112636;27;20059;-72
2022/01/05 03:48:22;;;;;;;21.30;12.00;;;;;;;0.93;76.49;94162.84;5093308;28;20035;-72
2022/01/05 03:50:47;;;;;;;21.55;12.00;;;;;;;0.84;75.91;94172.66;5093309;28;20027;-72
2022/01/05 03:53:13;;;;;;;18.95;12.52;;;;;;;0.93;76.21;94185.84;5111524;28;20027;-72
2022/01/05 03:55:39;;;;;;;17.60;11.40;;;;;;;0.62;77.75;94192.63;5110187;28;20038;-73
2022/01/05 03:58:05;;;;;;;16.05;10.68;;;;;;;0.74;77.26;94181.72;5076258;28;20043;-72
2022/01/05 04:00:31;;;;;;;20.17;12.10;;;;;;;0.62;77.08;94172.19;5097974;28;20028;-72
2022/01/05 04:02:57;;;;;;;16.50;11.02;;;;;;;0.76;77.03;94179.91;5110053;28;20032;-72
2022/01/05 04:05:23;;;;;;;19.17;11.52;;;;;;;0.69;77.32;94177.78;5117566;27;20057;-72
2022/01/05 04:07:49;;;;;;;20.75;12.50;;;;;;;0.58;76.83;94170.69;5130410;27;20031;-72
2022/01/05 04:10:15;;;;;;;21.02;12.98;;;;;;;0.50;77.47;94177.94;5130325;27;20092;-72
2022/01/05 04:12:40;;;;;;;18.25;11.65;;;;;;;0.63;77.96;94166.16;5130446;28;20446;-73
2022/01/05 04:15:06;;;;;;;17.77;10.30;;;;;;;0.68;78.31;94161.63;5116430;28;20050;-73
2022/01/05 04:17:31;;;;;;;18.80;11.32;;;;;;;0.82;78.78;94164.25;5111575;28;20031;-72
2022/01/05 04:19:57;;;;;;;17.45;11.20;;;;;;;0.92;78.97;94154.34;5097327;28;20028;-72
2022/01/05 04:22:22;;;;;;;17.23;10.15;;;;;;;1.02;79.86;94154.63;5114140;27;20058;-73
2022/01/05 04:24:48;;;;;;;15.93;8.70;;;;;;;1.22;79.50;94146.66;5097112;28;20027;-73
2022/01/05 04:27:15;;;;;;;15.43;9.68;;;;;;;1.27;78.74;94142.09;5115352;28;20057;-73
2022/01/05 04:29:41;;;;;;;16.65;10.25;;;;;;;1.39;78.72;94135.44;5097142;28;20060;-73
2022/01/05 04:32:06;;;;;;;18.05;11.48;;;;;;;1.57;78.05;94136.13;5098042;28;20513;-73
2022/01/05 04:34:32;;;;;;;15.13;10.55;;;;;;;1.72;77.67;94149.75;5114104;28;20031;-73
2022/01/05 04:36:57;;;;;;;12.93;9.50;;;;;;;1.79;77.41;94141.63;5114850;27;20308;-73
2022/01/05 04:39:23;;;;;;;20.65;11.48;;;;;;;1.79;76.71;94143.38;5079982;28;20031;-73
2022/01/05 04:41:48;;;;;;;30.10;14.05;;;;;;;1.77;76.36;94134.94;5096820;28;20024;-73
2022/01/05 04:44:13;;;;;;;17.92;10.23;;;;;;;1.92;76.23;94153.69;5113579;27;20478;-73
2022/01/05 04:46:39;;;;;;;19.52;11.80;;;;;;;1.51;75.37;94149.28;5113662;28;20034;-73
2022/01/05 04:49:04;;;;;;;16.92;12.13;;;;;;;1.39;76.48;94158.47;5113771;28;20028;-73
2022/01/05 04:51:30;;;;;;;17.90;11.05;;;;;;;1.55;76.74;94161.00;5113683;28;20032;-73
2022/01/05 04:53:55;;;;;;;19.63;12.13;;;;;;;1.63;77.03;94158.81;5085013;27;20027;-73
2022/01/05 04:56:21;;;;;;;20.58;13.48;;;;;;;1.80;76.93;94157.81;5131847;27;20042;-73
2022/01/05 04:58:46;;;;;;;26.85;15.82;;;;;;;1.88;76.30;94147.13;5129062;27;20057;-73
2022/01/05 05:01:12;;;;;;;27.35;16.83;;;;;;;1.92;75.76;94161.38;5133551;27;20039;-73
2022/01/05 05:03:38;;;;;;;21.95;14.43;;;;;;;1.90;75.93;94156.38;5122734;27;20039;-73
2022/01/05 05:06:03;;;;;;;19.67;12.40;;;;;;;1.84;76.09;94150.75;5121595;27;20072;-73
2022/01/05 05:08:29;;;;;;;14.30;9.75;;;;;;;1.95;75.81;94166.31;5133037;27;20393;-73
2022/01/05 05:10:54;;;;;;;16.90;10.07;;;;;;;2.01;75.44;94165.97;5117539;27;20031;-74
2022/01/05 05:13:20;;;;;;;18.48;10.90;;;;;;;1.89;75.16;94161.56;5121892;27;20031;-73
2022/01/05 05:15:45;;;;;;;16.33;9.98;;;;;;;2.00;75.26;94169.44;5134349;27;20035;-73
2022/01/05 05:18:10;;;;;;;35.97;18.80;;;;;;;1.46;75.51;94189.69;5131725;27;20477;-73
2022/01/05 05:20:36;;;;;;;30.00;17.50;;;;;;;1.38;75.25;94177.31;5113639;27;20530;-72
2022/01/05 05:23:01;;;;;;;26.65;15.60;;;;;;;1.40;75.85;94190.03;5128828;27;20469;-73
2022/01/05 05:25:27;;;;;;;20.73;11.88;;;;;;;1.33;76.26;94198.03;5104942;27;20118;-73
2022/01/05 05:27:53;;;;;;;13.20;9.10;;;;;;;1.38;75.98;94192.69;5090171;27;20618;-72
2022/01/05 05:30:18;;;;;;;13.30;8.73;;;;;;;1.19;76.11;94181.81;5102877;27;20063;-73
2022/01/05 05:32:44;;;;;;;14.40;8.80;;;;;;;1.15;76.06;94185.47;5114233;27;20042;-73
2022/01/05 05:35:09;;;;;;;16.48;11.05;;;;;;;1.30;77.31;94185.41;5117376;27;20036;-73
2022/01/05 05:37:35;;;;;;;17.77;10.18;;;;;;;1.31;76.56;94204.19;5080879;27;20027;-73
2022/01/05 05:40:01;;;;;;;16.30;10.32;;;;;;;1.27;76.17;94203.50;5116383;27;20035;-74
2022/01/05 05:42:26;;;;;;;19.17;11.75;;;;;;;1.02;75.45;94193.81;5111106;27;20043;-74
2022/01/05 05:44:58;;;;;;;32.17;18.73;;;;;;;0.21;78.23;94187.97;5106735;27;20020;-73
2022/01/05 05:47:23;;;;;;;23.15;13.45;;;;;;;0.43;78.81;94214.06;5113525;27;20093;-74
2022/01/05 05:49:49;;;;;;;18.67;11.75;;;;;;;0.52;78.09;94224.69;5109824;28;20416;-74
2022/01/05 05:52:15;;;;;;;22.80;14.65;;;;;;;0.51;77.35;94217.94;5104227;27;20035;-74
2022/01/05 05:54:40;;;;;;;18.25;12.45;;;;;;;0.58;77.56;94216.69;5100431;27;20046;-73
2022/01/05 05:57:06;;;;;;;17.08;10.38;;;;;;;0.60;77.69;94207.22;5118423;27;20039;-73
2022/01/05 05:59:32;;;;;;;15.30;9.85;;;;;;;0.63;76.85;94197.66;5110642;27;20496;-74
2022/01/05 06:01:57;;;;;;;16.42;11.07;;;;;;;0.34;76.99;94222.22;5109570;28;20039;-73
2022/01/05 06:04:22;;;;;;;15.38;10.38;;;;;;;0.33;77.80;94204.38;5130297;27;20023;-74
2022/01/05 06:06:48;;;;;;;23.02;12.73;;;;;;;0.22;77.29;94204.94;5110072;27;20164;-73
2022/01/05 06:09:13;;;;;;;29.25;19.83;;;;;;;0.21;78.36;94209.25;5128309;27;20080;-73
2022/01/05 06:11:39;;;;;;;28.20;16.67;;;;;;;0.21;77.95;94198.19;5130997;27;20115;-73
2022/01/05 06:14:04;;;;;;;19.35;11.93;;;;;;;0.02;78.17;94177.88;5111052;27;20093;-74
2022/01/05 06:16:29;;;;;;;17.58;11.63;;;;;;;0.24;78.00;94208.25;5123408;27;20023;-75
2022/01/05 06:18:55;;;;;;;18.90;13.55;;;;;;;0.34;77.98;94208.63;5091778;28;20032;-73
2022/01/05 06:21:20;;;;;;;18.58;12.27;;;;;;;0.15;78.09;94201.09;5109528;28;20043;-75
2022/01/05 06:23:46;;;;;;;21.75;12.32;;;;;;;-0.09;79.41;94193.75;5092634;28;20034;-75
2022/01/05 06:26:11;;;;;;;17.77;11.50;;;;;;;-0.06;78.91;94226.81;5115549;27;20028;-73
2022/01/05 06:28:37;;;;;;;15.93;10.30;;;;;;;0.08;78.78;94231.22;5121011;27;20027;-72
2022/01/05 06:31:02;;;;;;;22.55;11.35;;;;;;;0.03;79.81;94230.66;5094377;28;20051;-73
2022/01/05 06:33:27;;;;;;;18.13;11.05;;;;;;;0.06;79.60;94237.31;5107775;28;20024;-72
2022/01/05 06:35:53;;;;;;;16.83;10.90;;;;;;;0.18;79.63;94234.13;5123853;27;20023;-71
2022/01/05 06:38:18;;;;;;;21.70;11.15;;;;;;;0.25;79.28;94242.28;5127009;27;20024;-72
2022/01/05 06:40:44;;;;;;;28.88;12.50;;;;;;;0.41;79.04;94236.31;5117869;27;20035;-72
2022/01/05 06:43:09;;;;;;;19.63;11.50;;;;;;;0.61;79.57;94230.16;5103616;28;20039;-72
2022/01/05 06:45:35;;;;;;;18.38;10.80;;;;;;;0.79;80.06;94225.78;5110653;28;20035;-72
2022/01/05 06:48:00;;;;;;;14.27;8.63;;;;;;;1.01;79.36;94209.28;5108694;28;20546;-72
2022/01/05 06:50:26;;;;;;;16.65;8.65;;;;;;;1.22;78.89;94228.53;5113021;27;20039;-74
2022/01/05 06:52:53;;;;;;;19.48;10.15;;;;;;;1.31;78.42;94205.00;5097729;27;20032;-74
2022/01/05 06:55:18;;;;;;;28.52;14.52;;;;;;;1.48;77.85;94228.81;5096533;27;20512;-74
2022/01/05 06:57:44;;;;;;;19.73;9.73;;;;;;;1.55;77.71;94241.16;5114519;27;20477;-74
2022/01/05 07:00:10;;;;;;;52.40;28.40;;;;;;;1.28;76.59;94232.47;5126367;27;20031;-76
2022/01/05 07:02:36;;;;;;;56.35;33.75;;;;;;;1.12;76.97;94224.84;5105076;27;20031;-77
2022/01/05 07:05:02;;;;;;;57.38;33.85;;;;;;;1.15;76.94;94216.19;5114523;27;20031;-80
2022/01/05 07:07:30;;;;;;;55.95;32.85;;;;;;;1.09;77.15;94227.59;5117256;27;20462;-79
2022/01/05 07:09:55;;;;;;;43.20;28.30;;;;;;;0.81;77.23;94162.59;5094806;28;20032;-72
2022/01/05 07:12:21;;;;;;;44.90;28.58;;;;;;;1.20;76.67;94224.41;5113526;27;20424;-72
2022/01/05 07:14:46;;;;;;;49.63;30.45;;;;;;;1.15;76.69;94222.13;5133001;27;20385;-72
2022/01/05 07:17:12;;;;;;;69.15;37.70;;;;;;;0.94;76.71;94184.94;5123549;27;20421;-72
2022/01/05 07:19:37;;;;;;;67.78;37.67;;;;;;;0.88;76.54;94189.47;5112325;28;20110;-72
2022/01/05 07:22:03;;;;;;;72.82;40.28;;;;;;;0.76;76.74;94174.81;5110725;28;20039;-72
2022/01/05 07:24:28;;;;;;;67.45;37.70;;;;;;;0.98;77.09;94215.38;5112244;28;20101;-72
2022/01/05 07:26:53;;;;;;;68.90;40.55;;;;;;;1.13;77.11;94229.06;5093661;28;20031;-72
2022/01/05 07:29:19;;;;;;;57.30;33.42;;;;;;;1.13;76.86;94229.06;5084955;27;20027;-72
2022/01/05 07:31:45;;;;;;;72.97;43.00;;;;;;;1.19;76.77;94240.69;5113889;27;20043;-72
2022/01/05 07:34:11;;;;;;;77.05;44.15;;;;;;;0.42;77.74;94191.97;5131058;27;20053;-72
2022/01/05 07:36:36;;;;;;;51.08;29.52;;;;;;;0.48;78.89;94225.78;5113827;27;20057;-72
2022/01/05 07:39:04;;;;;;;64.05;35.13;;;;;;;0.73;77.92;94230.41;5113909;27;20473;-72
2022/01/05 07:41:30;;;;;;;54.13;32.92;;;;;;;0.73;78.54;94223.56;5114134;27;20027;-73
2022/01/05 07:43:56;;;;;;;51.60;31.77;;;;;;;0.65;77.73;94195.03;5096667;27;20064;-72
2022/01/05 07:46:21;;;;;;;45.40;27.00;;;;;;;0.60;78.17;94202.09;5130846;27;20031;-72
2022/01/05 07:48:46;;;;;;;45.03;26.92;;;;;;;1.03;77.97;94246.66;5130802;27;20019;-72
2022/01/05 07:51:12;;;;;;;55.97;31.95;;;;;;;1.14;78.34;94233.25;5130679;27;20077;-72
2022/01/05 07:53:38;;;;;;;55.72;32.20;;;;;;;1.37;77.52;94256.75;5113688;27;20035;-72
2022/01/05 07:56:04;;;;;;;53.25;30.05;;;;;;;1.55;76.64;94228.38;5096610;27;20023;-72
2022/01/05 07:58:29;;;;;;;51.05;31.30;;;;;;;1.32;77.46;94245.03;5113484;27;20540;-72
2022/01/05 08:00:54;;;;;;;49.75;30.08;;;;;;;1.25;76.94;94189.97;5106845;27;20522;-72
2022/01/05 08:03:20;;;;;;;39.63;24.40;;;;;;;1.43;77.15;94239.31;5102498;27;20027;-72
2022/01/05 08:05:45;;;;;;;53.95;34.17;;;;;;;1.48;77.58;94241.63;5088258;27;20848;-72
2022/01/05 08:08:11;;;;;;;51.22;31.10;;;;;;;1.38;77.21;94191.84;5103107;28;20035;-72
2022/01/05 08:10:36;;;;;;;47.22;29.45;;;;;;;1.81;76.64;94245.72;5085379;28;20023;-72
2022/01/05 08:13:02;;;;;;;80.80;46.20;;;;;;;1.69;76.99;94232.72;5115758;28;20035;-72
2022/01/05 08:15:27;;;;;;;71.47;41.38;;;;;;;1.74;77.42;94229.88;5086260;28;20058;-72
2022/01/05 08:17:53;;;;;;;57.00;33.80;;;;;;;1.96;76.72;94240.53;5090884;28;20403;-72
2022/01/05 08:20:18;;;;;;;75.55;40.72;;;;;;;1.99;77.01;94226.72;5124966;28;20020;-73
2022/01/05 08:22:45;;;;;;;71.10;38.78;;;;;;;2.29;76.98;94241.22;5091159;28;20459;-73
2022/01/05 08:25:12;;;;;;;33.38;20.80;;;;;;;2.10;76.83;94185.91;5109799;28;20475;-73
2022/01/05 08:27:38;;;;;;;48.67;26.33;;;;;;;2.66;76.25;94245.75;5110770;28;20126;-73
2022/01/05 08:30:05;;;;;;;32.92;21.13;;;;;;;2.76;75.52;94228.09;5113087;28;20185;-72
2022/01/05 08:32:32;;;;;;;41.05;22.65;;;;;;;3.05;75.09;94228.81;5113634;28;20030;-72
2022/01/05 08:34:57;;;;;;;37.33;22.23;;;;;;;3.01;74.79;94204.28;5096352;28;20039;-72
2022/01/05 08:37:23;;;;;;;60.75;34.70;;;;;;;3.28;73.05;94218.84;5103642;28;20047;-72
2022/01/05 08:39:50;;;;;;;46.97;26.08;;;;;;;3.37;72.12;94215.69;5109684;28;20032;-73
2022/01/05 08:42:16;;;;;;;50.80;27.00;;;;;;;3.44;72.87;94175.06;5093335;28;20031;-73
2022/01/05 08:44:41;;;;;;;46.28;27.30;;;;;;;3.93;73.26;94226.59;5092824;28;20386;-73
2022/01/05 08:47:07;;;;;;;41.78;24.70;;;;;;;4.12;71.88;94208.19;5106395;28;20031;-72
2022/01/05 08:49:33;;;;;;;41.33;23.20;;;;;;;4.19;71.97;94208.63;5092651;28;20055;-72
2022/01/05 08:51:59;;;;;;;34.65;21.63;;;;;;;4.46;72.17;94236.81;5092680;28;20063;-73
2022/01/05 08:54:25;;;;;;;36.15;20.95;;;;;;;4.57;71.86;94220.59;5109739;28;20631;-73
2022/01/05 08:56:51;;;;;;;35.05;20.55;;;;;;;4.52;71.36;94189.25;5111400;28;20027;-72
2022/01/05 08:59:16;;;;;;;39.17;23.52;;;;;;;4.92;70.06;94208.69;5110473;28;20096;-73
2022/01/05 09:04:26;;;;;;;43.13;26.05;;;;;;;5.00;67.94;94209.91;5113765;27;20462;-73
2022/01/05 09:06:52;;;;;;;41.35;25.45;;;;;;;4.83;68.92;94168.16;5113309;28;20020;-73
2022/01/05 09:09:17;;;;;;;39.30;24.13;;;;;;;5.21;68.38;94210.13;5096292;28;20039;-72
2022/01/05 09:11:43;;;;;;;34.60;21.88;;;;;;;5.19;67.93;94202.53;5096286;28;20039;-71
2022/01/05 09:14:08;;;;;;;29.02;19.70;;;;;;;4.98;66.65;94173.16;5132277;27;20023;-72
2022/01/05 09:16:34;;;;;;;33.42;20.23;;;;;;;5.30;65.42;94199.19;5134892;27;20416;-72
2022/01/05 09:19:00;;;;;;;34.65;22.30;;;;;;;5.45;64.44;94207.56;5135110;27;20115;-72
2022/01/05 09:21:25;;;;;;;38.50;22.48;;;;;;;5.60;64.66;94201.31;5112337;28;20564;-72
2022/01/05 09:23:51;;;;;;;35.72;21.65;;;;;;;5.85;64.54;94208.06;5107311;27;20459;-72
2022/01/05 09:26:16;;;;;;;32.95;21.95;;;;;;;5.68;63.75;94195.56;5110712;27;20027;-72
2022/01/05 09:28:44;;;;;;;35.00;22.02;;;;;;;5.71;65.17;94169.56;5087367;27;20035;-73
2022/01/05 09:31:10;;;;;;;31.73;21.10;;;;;;;6.07;66.75;94185.84;5086633;27;20050;-72
2022/01/05 09:33:35;;;;;;;33.08;21.00;;;;;;;6.28;64.92;94189.41;5103418;28;20126;-72
2022/01/05 09:36:03;;;;;;;31.70;20.95;;;;;;;6.21;67.17;94170.16;5101208;28;20481;-72
2022/01/05 09:44:03;;;;;;;36.72;22.77;;;;;;;6.60;64.21;94152.56;5116381;27;20049;-74
2022/01/05 09:46:34;;;;;;;36.45;22.95;;;;;;;6.69;65.17;94157.84;5094747;27;20034;-73
2022/01/05 09:49:09;;;;;;;37.20;21.42;;;;;;;6.88;63.97;94151.22;5112692;27;20039;-73
2022/01/05 09:51:34;;;;;;;31.20;19.98;;;;;;;6.72;63.91;94108.56;5129644;27;20028;-73
2022/01/05 09:54:00;;;;;;;25.58;16.40;;;;;;;6.97;62.29;94137.59;5111246;28;20031;-73
2022/01/05 09:56:26;;;;;;;31.17;18.67;;;;;;;6.99;62.31;94132.31;5095346;28;20085;-74
2022/01/05 09:58:51;;;;;;;32.00;19.15;;;;;;;7.06;63.18;94130.88;5113865;27;20024;-73
2022/01/05 10:01:17;;;;;;;29.10;17.80;;;;;;;7.23;62.94;94139.88;5095305;28;20024;-73
2022/01/05 10:03:42;;;;;;;31.40;18.20;;;;;;;7.30;62.68;94115.16;5095318;28;20425;-73
2022/01/05 10:06:08;;;;;;;28.25;17.90;;;;;;;7.46;61.52;94120.72;5095308;28;20413;-73
2022/01/05 10:08:33;;;;;;;26.75;16.05;;;;;;;7.46;61.90;94130.25;5113495;28;20089;-73
2022/01/05 10:10:59;;;;;;;33.28;17.42;;;;;;;7.27;62.64;94094.75;5095163;28;20074;-73
2022/01/05 10:13:24;;;;;;;34.10;19.10;;;;;;;7.38;62.33;94092.09;5094974;28;20028;-73
2022/01/05 10:15:50;;;;;;;24.20;16.02;;;;;;;7.66;62.65;94131.19;5095304;28;20032;-72
2022/01/05 10:18:19;;;;;;;21.75;14.07;;;;;;;7.49;60.95;94071.38;5077948;28;20379;-73
2022/01/05 10:21:01;;;;;;;21.33;12.25;;;;;;;7.73;59.45;94112.47;5094841;28;20122;-74
2022/01/05 10:23:45;;;;;;;18.05;12.00;;;;;;;7.79;59.74;94096.44;5078432;28;20051;-73
2022/01/05 10:26:36;;;;;;;22.17;12.38;;;;;;;7.94;60.67;94107.31;5096537;28;20035;-73
2022/01/05 10:29:22;;;;;;;16.27;10.73;;;;;;;7.90;59.31;94087.00;5111834;28;20401;-73
2022/01/05 10:31:52;;;;;;;14.75;9.90;;;;;;;8.07;58.78;94102.72;5111840;28;20105;-73
2022/01/05 10:34:27;;;;;;;15.52;10.18;;;;;;;7.91;57.58;94066.19;5111731;28;20579;-73
2022/01/05 10:36:57;;;;;;;18.08;11.32;;;;;;;8.02;57.51;94066.09;5094969;28;20035;-73
2022/01/05 10:39:30;;;;;;;21.83;12.68;;;;;;;8.29;58.18;94082.78;5077778;28;20031;-72
2022/01/05 10:41:56;;;;;;;20.83;12.13;;;;;;;8.36;58.24;94070.97;5094662;28;20457;-74
2022/01/05 10:44:23;;;;;;;19.58;10.98;;;;;;;8.41;56.89;94071.44;5112517;28;20077;-73
2022/01/05 10:46:54;;;;;;;21.15;11.88;;;;;;;8.52;57.55;94078.25;5094523;28;20061;-73
2022/01/05 10:49:28;;;;;;;24.10;13.80;;;;;;;8.63;56.74;94069.56;5094653;28;20019;-74
2022/01/05 10:51:54;;;;;;;26.85;13.93;;;;;;;8.53;56.25;94068.75;5111277;28;20559;-73
2022/01/05 10:54:21;;;;;;;20.05;11.95;;;;;;;8.74;56.71;94069.44;5077505;28;20111;-74
2022/01/05 10:56:47;;;;;;;20.65;12.15;;;;;;;8.73;56.21;94067.81;5077371;28;20046;-74
2022/01/05 10:59:15;;;;;;;15.93;9.98;;;;;;;8.81;55.86;94059.41;5111233;28;20027;-73
2022/01/05 11:01:41;;;;;;;17.83;10.60;;;;;;;8.87;55.21;94064.84;5094450;28;20433;-74
2022/01/05 11:04:17;;;;;;;16.75;9.98;;;;;;;9.01;54.83;94060.22;5094011;28;20039;-71
2022/01/05 11:07:04;;;;;;;17.63;11.13;;;;;;;8.99;55.44;94054.34;5093974;28;20027;-73
2022/01/05 11:09:31;;;;;;;18.33;10.75;;;;;;;9.08;55.44;94043.16;5111165;28;20100;-74
2022/01/05 11:11:56;;;;;;;14.77;9.50;;;;;;;9.09;55.45;94050.81;5094064;28;20044;-73
2022/01/05 11:14:30;;;;;;;71.95;27.33;;;;;;;9.19;54.62;94040.44;5094026;28;20039;-74
2022/01/05 11:16:56;;;;;;;16.15;9.63;;;;;;;9.09;54.23;94042.22;5110777;28;20523;-73
2022/01/05 11:19:33;;;;;;;12.98;8.50;;;;;;;9.20;54.84;94052.44;5076745;28;20075;-73
2022/01/05 11:22:13;;;;;;;11.82;8.70;;;;;;;9.26;54.71;94028.56;5110693;28;20032;-74
2022/01/05 11:24:39;;;;;;;14.15;8.48;;;;;;;8.84;52.99;94021.09;5112320;28;20107;-73
2022/01/05 11:27:06;;;;;;;13.95;8.88;;;;;;;9.11;53.44;94027.34;5110227;28;20151;-74
2022/01/05 11:29:33;;;;;;;13.43;8.75;;;;;;;9.13;53.95;94021.06;5110447;28;20024;-74
2022/01/05 11:32:00;;;;;;;13.98;8.40;;;;;;;9.27;53.66;94030.19;5110488;28;20023;-73
2022/01/05 11:34:29;;;;;;;19.73;9.77;;;;;;;9.29;54.57;94024.88;5093605;28;20519;-73